Share

Tanger, Maroc

Sania Ramel (GMTN) Alt. 33 ft | 35.59 °N, 5.33 °W | Change Station

Current weather conditions updated 48 minutes ago

Mostly Cloudy
Nuageux
68 ° F
Paraît 68 ° F
N
16
Vent Variable Vent de SSO
Lever du soleil 5:44 AM
Coucher du soleil 7:00 PM
Lune Lune gibbeuse décroissante

Aujourd’hui il est prévu de faire plus froid qu’hier. Orages épars..

Pression 29.77 pouce
Visibilité 6.2 Miles terrestres
Nuages Nuageux 3300 ft
Point de rosée 50 ° F
Humidité 52%
Précipitations 0.00 pouce
Profondeur de la couche neigeuse Non disponible.
UV 4 sur 16
Pollen Non disponible.
Qualité de l'air Non disponible.
Flu Activity Non disponible.
METAR GMTN 201000Z 20014KT 9999 BKN033 20/10 Q1008

More Conditions Fewer Conditions

Pression 29.77 pouce
Visibilité 6.2 Miles terrestres
Nuages Nuageux 3300 ft
Point de rosée 50 ° F
Humidité 52%
Précipitations 0.00 pouce
Profondeur de la couche neigeuse Non disponible.
UV 4 sur 16
Pollen Non disponible.
Qualité de l'air Non disponible.
Flu Activity Non disponible.
METAR GMTN 201000Z 20014KT 9999 BKN033 20/10 Q1008

More Conditions Fewer Conditions

10-Day Weather Forecast

Almanac

Astronomie

Apr. 20, 2014 Lever Coucher
Temps réel 05:44 WET 19:00 WET
Crépuscule civil 05:18 WET 19:27 WET
Crépuscule nautique 04:46 WET 19:59 WET
Crépuscule astronomique 04:13 WET 20:32 WET
Lune Pas de lever de lune 09:54 WET
Durée de lumière visible 14h 09m
Longueur du jour
13h 16m
Tomorrow will be 2m 5s longer.
Lune gibbeuse décroissante, 71% of the Moon is Illuminated
Aujourd'hui
Lune gibbeuse décroissante
avr 22
Dernier quartier
avr 29
Nouveau
mai 6
Premier quartier
mai 14
Pleine lune

Les extrêmes de température d’hier

Country Highs Country Lows

Community

  • Easter Greetings
    Easter Greetings
  • Sunny day at the coast-Cape Arago Lighthouse
    Sunny day at the coast-Cape Arago Lighthouse
  • Cherry Blossoms
    Cherry Blossoms
  • White-Crowned Sparrow
    White-Crowned Sparrow
  • New Day
    New Day

WunderPhotos

Upload Photos

1,703,135 Photos téléchargées !

WunderBlogs® & News

Nearby

Qualité de l'air

Not available.

Épaisseur de neige

Not available.

Températures des eaux côtières

Lieu Température
Aucun rapport de station

Activité sismique

Ville Distance Mag. Time & Date
No recent earthquake activity has been reported nearby.
Minimum magnitude displayed is 2.5.

Stations météo à proximité

Il n'y a aucune station météorologique personnelle dans cette zone.

What do you think?

We're not finished. Please let us know what you like, what you don't like, and what you are still missing.